createdAt,value
2022-10-05T00:00:47.844Z,8.40
2022-10-05T00:03:36.214Z,9.30
2022-10-05T00:06:04.629Z,7.80
2022-10-05T00:08:34.085Z,8.40
2022-10-05T00:11:01.192Z,9.20
2022-10-05T00:13:29.856Z,8.80
2022-10-05T00:16:16.421Z,8.50
2022-10-05T00:18:47.682Z,9.10
2022-10-05T00:21:21.253Z,10.80
2022-10-05T00:23:48.924Z,10.50
2022-10-05T00:26:21.059Z,9.50
2022-10-05T00:28:48.297Z,9.70
2022-10-05T00:31:19.461Z,9.20
2022-10-05T00:33:47.630Z,9.50
2022-10-05T00:36:14.630Z,10.70
2022-10-05T00:38:42.307Z,10.40
2022-10-05T00:41:13.344Z,9.90
2022-10-05T00:46:19.413Z,10.70
2022-10-05T00:49:13.469Z,9.70
2022-10-05T00:51:43.914Z,9.10
2022-10-05T00:54:46.320Z,9.70
2022-10-05T00:57:33.556Z,9.70
2022-10-05T01:00:08.560Z,8.00
2022-10-05T01:03:40.980Z,9.70
2022-10-05T01:06:59.528Z,9.20
2022-10-05T01:09:53.436Z,10.90
2022-10-05T01:12:43.475Z,9.20
2022-10-05T01:15:28.841Z,8.90
2022-10-05T01:18:13.106Z,9.20
2022-10-05T01:21:15.133Z,10.00
2022-10-05T01:24:17.051Z,8.80
2022-10-05T01:26:59.275Z,8.10
2022-10-05T01:29:48.471Z,9.40
2022-10-05T01:32:19.420Z,8.60
2022-10-05T01:35:07.991Z,8.90
2022-10-05T01:37:52.441Z,8.70
2022-10-05T01:40:36.807Z,8.60
2022-10-05T01:43:25.052Z,8.80
2022-10-05T01:45:58.709Z,8.30
2022-10-05T01:48:33.131Z,8.50
2022-10-05T01:51:26.615Z,8.40
2022-10-05T01:54:10.633Z,8.50
2022-10-05T01:57:09.457Z,8.80
2022-10-05T01:59:54.626Z,7.80
2022-10-05T02:02:25.396Z,8.30
2022-10-05T02:05:04.000Z,7.40
2022-10-05T02:07:55.020Z,8.60
2022-10-05T02:11:05.491Z,7.80
2022-10-05T02:13:49.105Z,8.10
2022-10-05T02:16:27.486Z,7.80
2022-10-05T02:19:21.858Z,7.90
2022-10-05T02:22:14.924Z,8.50
2022-10-05T02:24:51.155Z,8.30
2022-10-05T02:27:25.784Z,8.40
2022-10-05T02:30:01.635Z,8.40
2022-10-05T02:33:08.575Z,7.60
2022-10-05T02:35:36.942Z,7.50
2022-10-05T02:38:19.228Z,8.10
2022-10-05T02:41:10.814Z,7.90
2022-10-05T02:43:55.948Z,8.20
2022-10-05T02:46:43.758Z,7.90
2022-10-05T02:49:27.923Z,8.00
2022-10-05T02:52:34.176Z,8.20
2022-10-05T02:55:25.264Z,7.80
2022-10-05T02:58:28.504Z,8.30
2022-10-05T03:01:07.014Z,9.00
2022-10-05T03:03:45.161Z,8.20
2022-10-05T03:06:27.804Z,8.20
2022-10-05T03:09:04.812Z,7.90
2022-10-05T03:12:01.435Z,8.40
2022-10-05T03:14:46.742Z,7.70
2022-10-05T03:17:21.020Z,7.60
2022-10-05T03:19:57.179Z,8.60
2022-10-05T03:22:47.060Z,8.40
2022-10-05T03:25:47.755Z,8.40
2022-10-05T03:28:28.021Z,7.60
2022-10-05T03:30:56.201Z,8.00
2022-10-05T03:33:30.312Z,8.70
2022-10-05T03:35:59.141Z,8.10
2022-10-05T03:38:42.671Z,8.40
2022-10-05T03:41:16.094Z,9.10
2022-10-05T03:44:15.927Z,8.80
2022-10-05T03:47:02.998Z,8.40
2022-10-05T03:50:26.741Z,8.30
2022-10-05T03:53:04.230Z,8.70
2022-10-05T03:55:59.723Z,8.00
2022-10-05T03:58:57.607Z,8.00
2022-10-05T04:01:41.971Z,8.00
2022-10-05T04:04:19.131Z,7.40
2022-10-05T04:06:49.961Z,8.70
2022-10-05T04:09:39.694Z,8.50
2022-10-05T04:12:29.998Z,8.50
2022-10-05T04:15:25.729Z,7.90
2022-10-05T04:18:25.592Z,8.10
2022-10-05T04:21:00.230Z,7.90
2022-10-05T04:23:44.639Z,7.90
2022-10-05T04:26:33.979Z,8.30
2022-10-05T04:29:06.586Z,8.10
2022-10-05T04:31:47.340Z,8.50
2022-10-05T04:34:42.898Z,9.00
2022-10-05T04:37:21.970Z,8.20
2022-10-05T04:39:59.623Z,8.00
2022-10-05T04:42:43.023Z,7.60
2022-10-05T04:45:39.117Z,9.30
2022-10-05T04:48:27.090Z,9.30
2022-10-05T04:51:10.420Z,9.20
2022-10-05T04:53:51.345Z,9.00
2022-10-05T04:56:49.826Z,8.60
2022-10-05T04:59:51.640Z,9.40
2022-10-05T05:02:34.100Z,9.30
2022-10-05T05:05:27.853Z,9.40
2022-10-05T05:08:30.117Z,8.80
2022-10-05T05:11:13.742Z,10.30
2022-10-05T05:13:57.033Z,11.30
2022-10-05T05:16:43.291Z,10.50
2022-10-05T05:19:32.556Z,10.30
2022-10-05T05:22:04.404Z,11.40
2022-10-05T05:25:05.915Z,11.60
2022-10-05T05:27:48.159Z,11.50
2022-10-05T05:30:29.907Z,11.30
2022-10-05T05:33:16.669Z,12.30
2022-10-05T05:35:50.668Z,10.90
2022-10-05T05:38:33.578Z,12.30
2022-10-05T05:41:12.084Z,12.30
2022-10-05T05:43:41.786Z,11.50
2022-10-05T05:46:34.019Z,12.30
2022-10-05T05:49:53.184Z,12.80
2022-10-05T05:52:28.302Z,12.30
2022-10-05T05:55:08.009Z,12.90
2022-10-05T05:57:43.478Z,11.70
2022-10-05T06:00:14.986Z,13.20
2022-10-05T06:03:13.251Z,13.10
2022-10-05T06:05:50.181Z,13.00
2022-10-05T06:09:03.104Z,13.60
2022-10-05T06:11:50.517Z,12.00
2022-10-05T06:14:39.974Z,13.00
2022-10-05T06:17:35.330Z,11.80
2022-10-05T06:20:11.641Z,12.30
2022-10-05T06:22:45.085Z,12.40
2022-10-05T06:25:20.267Z,12.90
2022-10-05T06:28:15.249Z,12.60
2022-10-05T06:31:12.530Z,11.60
2022-10-05T06:33:54.189Z,11.00
2022-10-05T06:36:52.963Z,12.00
2022-10-05T06:39:36.669Z,12.60
2022-10-05T06:42:21.892Z,12.80
2022-10-05T06:45:55.092Z,11.90
2022-10-05T06:49:18.552Z,12.00
2022-10-05T06:52:25.453Z,13.10
2022-10-05T06:55:21.049Z,12.40
2022-10-05T06:58:08.079Z,12.60
2022-10-05T07:00:54.322Z,12.40
2022-10-05T07:03:35.491Z,11.50
2022-10-05T07:06:27.056Z,11.90
2022-10-05T07:09:21.186Z,11.40
2022-10-05T07:12:22.132Z,11.00
2022-10-05T07:15:06.762Z,11.10
2022-10-05T07:17:38.580Z,10.60
2022-10-05T07:20:17.376Z,9.90
2022-10-05T07:23:19.793Z,10.70
2022-10-05T07:26:00.075Z,10.60
2022-10-05T07:28:44.316Z,10.90
2022-10-05T07:31:40.121Z,10.40
2022-10-05T07:34:47.810Z,10.10
2022-10-05T07:37:55.378Z,9.00
2022-10-05T07:40:57.237Z,9.00
2022-10-05T07:44:01.060Z,8.70
2022-10-05T07:46:51.285Z,8.50
2022-10-05T07:49:26.764Z,7.90
2022-10-05T07:52:00.673Z,8.30
2022-10-05T07:54:47.225Z,9.10
2022-10-05T07:57:34.041Z,8.10
2022-10-05T08:00:18.089Z,6.90
2022-10-05T08:02:49.084Z,6.90
2022-10-05T08:05:26.911Z,8.30
2022-10-05T08:08:19.664Z,7.00
2022-10-05T08:11:09.631Z,7.00
2022-10-05T08:13:42.099Z,8.10
2022-10-05T08:16:12.763Z,6.30
2022-10-05T08:19:08.492Z,6.30
2022-10-05T08:21:42.701Z,6.80
2022-10-05T08:24:22.711Z,6.70
2022-10-05T08:27:10.567Z,6.00
2022-10-05T08:30:12.455Z,6.50
2022-10-05T08:33:05.916Z,6.80
2022-10-05T08:35:44.337Z,6.60
2022-10-05T08:38:18.857Z,6.20
2022-10-05T08:41:17.528Z,6.20
2022-10-05T08:44:26.697Z,5.70
2022-10-05T08:47:09.890Z,6.20
2022-10-05T08:49:41.479Z,6.00
2022-10-05T08:52:29.621Z,5.10
2022-10-05T08:55:27.401Z,6.00
2022-10-05T08:58:04.263Z,5.00
2022-10-05T09:01:00.009Z,5.50
2022-10-05T09:03:42.718Z,5.30
2022-10-05T09:06:48.054Z,5.10
2022-10-05T09:10:02.062Z,4.70
2022-10-05T09:12:45.231Z,5.00
2022-10-05T09:15:28.645Z,5.10
2022-10-05T09:18:17.717Z,4.50
2022-10-05T09:20:57.830Z,4.60
2022-10-05T09:23:43.035Z,4.70
2022-10-05T09:26:50.239Z,4.60
2022-10-05T09:30:12.708Z,4.40
2022-10-05T09:32:52.607Z,4.10
2022-10-05T09:35:51.789Z,4.50
2022-10-05T09:38:41.435Z,4.20
2022-10-05T09:41:28.012Z,4.90
2022-10-05T09:44:15.055Z,4.20
2022-10-05T09:47:01.648Z,4.50
2022-10-05T09:49:48.119Z,4.00
2022-10-05T09:52:41.012Z,4.60
2022-10-05T09:55:28.153Z,3.70
2022-10-05T09:58:22.424Z,3.90
2022-10-05T10:01:03.647Z,4.50
2022-10-05T10:03:59.000Z,4.40
2022-10-05T10:06:29.968Z,3.40
2022-10-05T10:09:10.286Z,3.70
2022-10-05T10:11:57.396Z,3.30
2022-10-05T10:15:07.380Z,3.30
2022-10-05T10:18:04.437Z,3.30
2022-10-05T10:20:50.752Z,3.80
2022-10-05T10:23:40.803Z,3.60
2022-10-05T10:26:14.654Z,3.80
2022-10-05T10:29:06.841Z,3.40
2022-10-05T10:31:44.073Z,3.30
2022-10-05T10:34:15.082Z,3.30
2022-10-05T10:37:02.388Z,3.40
2022-10-05T10:39:55.662Z,3.40
2022-10-05T10:42:46.695Z,3.40
2022-10-05T10:45:53.859Z,3.60
2022-10-05T10:48:31.196Z,3.70
2022-10-05T10:51:14.411Z,3.20
2022-10-05T10:54:02.782Z,3.60
2022-10-05T10:57:19.097Z,3.60
2022-10-05T10:59:53.096Z,2.80
2022-10-05T11:03:08.546Z,3.10
2022-10-05T11:06:07.783Z,3.20
2022-10-05T11:08:51.173Z,3.60
2022-10-05T11:11:27.852Z,2.90
2022-10-05T11:14:04.756Z,3.10
2022-10-05T11:17:11.683Z,3.60
2022-10-05T11:19:40.283Z,3.40
2022-10-05T11:22:34.892Z,3.30
2022-10-05T11:25:24.090Z,3.00
2022-10-05T11:28:14.400Z,3.50
2022-10-05T11:31:10.929Z,3.10
2022-10-05T11:33:59.323Z,3.40
2022-10-05T11:36:38.258Z,3.20
2022-10-05T11:39:28.878Z,2.80
2022-10-05T11:42:28.154Z,2.90
2022-10-05T11:45:24.251Z,2.90
2022-10-05T11:48:29.885Z,2.70
2022-10-05T11:51:16.460Z,2.70
2022-10-05T11:54:17.546Z,2.90
2022-10-05T11:59:56.661Z,2.90
2022-10-05T12:02:44.745Z,2.40
2022-10-05T12:05:33.494Z,2.60
2022-10-05T12:08:08.301Z,3.10
2022-10-05T12:11:04.257Z,3.10
2022-10-05T12:13:52.572Z,2.90
2022-10-05T12:16:36.926Z,2.80
2022-10-05T12:19:18.436Z,2.70
2022-10-05T12:21:52.156Z,2.80
2022-10-05T12:24:29.135Z,3.20
2022-10-05T12:27:12.017Z,3.20
2022-10-05T12:29:42.850Z,2.90
2022-10-05T12:32:21.171Z,2.90
2022-10-05T12:35:36.218Z,2.90
2022-10-05T12:38:25.661Z,3.00
2022-10-05T12:41:28.885Z,2.80
2022-10-05T12:44:31.710Z,2.90
2022-10-05T12:47:21.335Z,2.70
2022-10-05T12:50:02.523Z,3.00
2022-10-05T12:55:34.977Z,2.80
2022-10-05T12:58:09.336Z,2.60
2022-10-05T13:00:48.515Z,3.40
2022-10-05T13:03:34.733Z,2.90
2022-10-05T13:06:17.837Z,2.90
2022-10-05T13:08:56.771Z,2.70
2022-10-05T13:11:30.987Z,3.00
2022-10-05T13:14:23.604Z,2.60
2022-10-05T13:16:59.759Z,2.70
2022-10-05T13:19:48.423Z,2.60
2022-10-05T13:22:30.705Z,2.70
2022-10-05T13:25:20.668Z,2.40
2022-10-05T13:28:14.894Z,2.50
2022-10-05T13:30:52.906Z,2.70
2022-10-05T13:33:27.499Z,2.90
2022-10-05T13:36:20.906Z,1.90
2022-10-05T13:39:00.817Z,2.40
2022-10-05T13:41:50.433Z,2.50
2022-10-05T13:44:27.712Z,2.00
2022-10-05T13:47:05.638Z,2.30
2022-10-05T13:49:50.967Z,2.40
2022-10-05T13:52:19.025Z,2.40
2022-10-05T13:55:20.920Z,2.30
2022-10-05T13:58:15.349Z,2.10
2022-10-05T14:01:07.635Z,2.70
2022-10-05T14:03:38.415Z,2.30
2022-10-05T14:06:27.722Z,2.60
2022-10-05T14:08:57.868Z,2.30
2022-10-05T14:11:35.006Z,2.40
2022-10-05T14:14:12.669Z,2.20
2022-10-05T14:16:51.226Z,2.30
2022-10-05T14:19:27.658Z,2.60
2022-10-05T14:22:02.273Z,2.50
2022-10-05T14:24:45.088Z,1.90
2022-10-05T14:27:24.026Z,2.60
2022-10-05T14:29:57.314Z,2.20
2022-10-05T14:32:30.257Z,2.10
2022-10-05T14:35:14.119Z,2.50
2022-10-05T14:37:56.494Z,2.50
2022-10-05T14:40:31.945Z,2.50
2022-10-05T14:43:17.637Z,2.50
2022-10-05T14:46:00.831Z,2.60
2022-10-05T14:48:41.163Z,3.10
2022-10-05T14:51:30.535Z,2.50
2022-10-05T14:54:20.555Z,3.00
2022-10-05T14:57:04.860Z,3.20
2022-10-05T15:00:17.666Z,3.30
2022-10-05T15:03:07.173Z,3.10
2022-10-05T15:05:48.253Z,3.00
2022-10-05T15:10:52.818Z,3.00
2022-10-05T15:13:24.479Z,3.40
2022-10-05T15:15:57.016Z,3.50
2022-10-05T15:18:37.449Z,3.10
2022-10-05T15:21:33.217Z,3.20
2022-10-05T15:24:09.382Z,3.00
2022-10-05T15:26:53.868Z,3.60
2022-10-05T15:29:47.315Z,3.40
2022-10-05T15:32:41.889Z,3.10
2022-10-05T15:35:37.170Z,4.10
2022-10-05T15:38:29.281Z,3.30
2022-10-05T15:41:23.798Z,3.50
2022-10-05T15:44:21.549Z,3.80
2022-10-05T15:47:19.049Z,3.40
2022-10-05T15:50:13.842Z,3.00
2022-10-05T15:52:56.297Z,3.20
2022-10-05T15:55:35.634Z,3.10
2022-10-05T15:58:31.342Z,3.10
2022-10-05T16:01:10.417Z,3.30
2022-10-05T16:03:44.906Z,3.50
2022-10-05T16:07:03.964Z,3.90
2022-10-05T16:10:01.575Z,4.00
2022-10-05T16:12:40.182Z,3.70
2022-10-05T16:15:26.557Z,3.10
2022-10-05T16:18:18.714Z,3.20
2022-10-05T16:20:53.394Z,4.40
2022-10-05T16:23:27.979Z,3.50
2022-10-05T16:26:14.758Z,3.90
2022-10-05T16:29:02.843Z,3.60
2022-10-05T16:31:39.550Z,3.60
2022-10-05T16:34:17.447Z,3.60
2022-10-05T16:37:16.782Z,4.40
2022-10-05T16:40:05.607Z,5.30
2022-10-05T16:42:46.690Z,3.70
2022-10-05T16:45:18.277Z,4.20
2022-10-05T16:48:00.048Z,3.70
2022-10-05T16:50:54.813Z,3.90
2022-10-05T16:53:31.751Z,4.30
2022-10-05T16:56:25.355Z,4.60
2022-10-05T16:59:25.893Z,4.40
2022-10-05T17:02:43.525Z,4.40
2022-10-05T17:05:48.852Z,4.00
2022-10-05T17:08:39.200Z,4.00
2022-10-05T17:11:25.794Z,4.60
2022-10-05T17:14:27.864Z,4.80
2022-10-05T17:17:31.213Z,4.50
2022-10-05T17:20:25.318Z,5.20
2022-10-05T17:23:11.878Z,4.60
2022-10-05T17:25:55.489Z,4.50
2022-10-05T17:28:37.934Z,4.80
2022-10-05T17:31:17.765Z,4.30
2022-10-05T17:34:07.354Z,4.00
2022-10-05T17:36:48.373Z,4.40
2022-10-05T17:41:46.841Z,4.80
2022-10-05T17:44:21.469Z,4.30
2022-10-05T17:46:52.479Z,4.30
2022-10-05T17:49:23.006Z,4.20
2022-10-05T17:52:10.031Z,4.20
2022-10-05T17:55:02.767Z,3.90
2022-10-05T17:57:33.925Z,4.30
2022-10-05T18:02:40.176Z,4.70
2022-10-05T18:05:17.361Z,4.00
2022-10-05T18:07:50.886Z,4.00
2022-10-05T18:10:29.283Z,4.50
2022-10-05T18:13:00.875Z,4.20
2022-10-05T18:15:28.933Z,3.90
2022-10-05T18:18:19.909Z,4.20
2022-10-05T18:24:09.457Z,3.70
2022-10-05T18:29:50.481Z,4.30
2022-10-05T18:32:49.437Z,4.40
2022-10-05T18:35:27.152Z,4.40
2022-10-05T18:38:13.736Z,4.40
2022-10-05T18:41:09.751Z,4.80
2022-10-05T18:44:00.756Z,4.40
2022-10-05T18:46:39.643Z,4.30
2022-10-05T18:49:38.677Z,4.60
2022-10-05T18:52:12.625Z,4.60
2022-10-05T18:54:54.215Z,5.10
2022-10-05T18:57:25.827Z,4.50
2022-10-05T19:00:06.909Z,4.90
2022-10-05T19:02:40.627Z,3.90
2022-10-05T19:05:29.355Z,4.40
2022-10-05T19:08:25.422Z,5.00
2022-10-05T19:11:00.880Z,4.70
2022-10-05T19:13:51.091Z,4.40
2022-10-05T19:16:58.902Z,4.30
2022-10-05T19:19:50.631Z,4.60
2022-10-05T19:22:25.183Z,4.40
2022-10-05T19:25:21.030Z,4.40
2022-10-05T19:28:12.619Z,4.30
2022-10-05T19:30:50.952Z,4.40
2022-10-05T19:33:27.875Z,4.40
2022-10-05T19:36:20.990Z,4.80
2022-10-05T19:38:55.010Z,4.90
2022-10-05T19:41:29.926Z,4.50
2022-10-05T19:44:06.639Z,4.50
2022-10-05T19:46:42.142Z,4.60
2022-10-05T19:49:10.946Z,4.90
2022-10-05T19:51:50.817Z,4.70
2022-10-05T19:54:25.902Z,4.80
2022-10-05T19:56:55.761Z,4.50
2022-10-05T19:59:31.459Z,5.00
2022-10-05T20:02:00.072Z,4.30
2022-10-05T20:04:40.871Z,4.50
2022-10-05T20:07:17.957Z,4.50
2022-10-05T20:09:55.419Z,4.60
2022-10-05T20:13:15.485Z,4.40
2022-10-05T20:16:35.489Z,4.40
2022-10-05T20:19:24.456Z,4.50
2022-10-05T20:21:59.863Z,4.30
2022-10-05T20:24:30.415Z,5.00
2022-10-05T20:27:05.887Z,5.10
2022-10-05T20:29:40.063Z,4.90
2022-10-05T20:32:18.111Z,4.40
2022-10-05T20:34:48.019Z,4.50
2022-10-05T20:37:18.285Z,4.90
2022-10-05T20:39:47.980Z,4.90
2022-10-05T20:42:16.264Z,4.80
2022-10-05T20:44:44.928Z,4.50
2022-10-05T20:47:13.875Z,4.50
2022-10-05T20:49:42.265Z,5.10
2022-10-05T20:52:11.833Z,4.40
2022-10-05T20:54:39.995Z,4.30
2022-10-05T20:57:09.617Z,4.40
2022-10-05T20:59:37.987Z,4.20
2022-10-05T21:02:06.776Z,3.70
2022-10-05T21:04:42.872Z,3.80
2022-10-05T21:07:11.882Z,3.90
2022-10-05T21:09:42.486Z,4.70
2022-10-05T21:12:11.205Z,4.70
2022-10-05T21:14:43.296Z,4.00
2022-10-05T21:17:12.110Z,4.40
2022-10-05T21:19:40.485Z,4.50
2022-10-05T21:22:10.045Z,4.00
2022-10-05T21:24:39.805Z,3.90
2022-10-05T21:27:09.893Z,4.60
2022-10-05T21:29:41.224Z,4.20
2022-10-05T21:32:11.905Z,5.40
2022-10-05T21:34:41.228Z,4.40
2022-10-05T21:37:09.457Z,3.90
2022-10-05T21:39:37.573Z,4.60
2022-10-05T21:42:05.925Z,3.90
2022-10-05T21:44:33.983Z,4.60
2022-10-05T21:47:04.379Z,4.20
2022-10-05T21:49:32.888Z,4.50
2022-10-05T21:52:02.003Z,4.60
2022-10-05T21:54:32.594Z,4.10
2022-10-05T21:57:01.129Z,3.70
2022-10-05T21:59:32.645Z,4.00
2022-10-05T22:02:00.828Z,4.20
2022-10-05T22:04:29.422Z,3.60
2022-10-05T22:06:57.738Z,3.40
2022-10-05T22:09:25.997Z,3.90
2022-10-05T22:11:55.043Z,3.70
2022-10-05T22:14:23.202Z,3.80
2022-10-05T22:16:51.682Z,3.70
2022-10-05T22:19:20.438Z,4.00
2022-10-05T22:21:48.556Z,3.60
2022-10-05T22:24:16.625Z,3.50
2022-10-05T22:26:48.064Z,3.70
2022-10-05T22:29:17.012Z,3.80
2022-10-05T22:31:48.831Z,3.90
2022-10-05T22:34:18.091Z,4.00
2022-10-05T22:36:47.596Z,4.10
2022-10-05T22:39:16.633Z,4.20
2022-10-05T22:41:45.170Z,3.80
2022-10-05T22:44:13.538Z,3.30
2022-10-05T22:46:41.756Z,3.30
2022-10-05T22:49:09.972Z,3.70
2022-10-05T22:51:38.163Z,3.60
2022-10-05T22:54:06.535Z,3.20
2022-10-05T22:56:34.661Z,3.90
2022-10-05T22:59:02.992Z,3.60
2022-10-05T23:01:31.428Z,3.60
2022-10-05T23:03:59.738Z,3.50
2022-10-05T23:06:27.952Z,3.50
2022-10-05T23:08:56.138Z,3.20
2022-10-05T23:11:27.750Z,3.10
2022-10-05T23:13:57.590Z,3.20
2022-10-05T23:16:28.251Z,3.10
2022-10-05T23:18:56.479Z,3.80
2022-10-05T23:21:27.211Z,3.30
2022-10-05T23:23:55.987Z,3.40
2022-10-05T23:26:27.481Z,3.80
2022-10-05T23:28:55.855Z,3.60
2022-10-05T23:31:30.489Z,3.10
2022-10-05T23:33:58.710Z,3.40
2022-10-05T23:36:32.255Z,2.90
2022-10-05T23:39:00.834Z,3.70
2022-10-05T23:41:29.129Z,3.40
2022-10-05T23:43:57.218Z,3.30
2022-10-05T23:46:25.699Z,3.30
2022-10-05T23:48:53.787Z,3.50
2022-10-05T23:51:22.022Z,3.50
2022-10-05T23:53:50.480Z,3.40
2022-10-05T23:56:18.551Z,3.30
2022-10-05T23:58:46.606Z,3.10
